createdAt,value
2018-03-03T00:00:13.531Z,2.30
2018-03-03T00:02:41.052Z,2.40
2018-03-03T00:05:08.593Z,2.40
2018-03-03T00:07:36.047Z,2.40
2018-03-03T00:10:03.483Z,2.50
2018-03-03T00:12:30.943Z,2.40
2018-03-03T00:14:58.423Z,2.40
2018-03-03T00:17:25.883Z,2.40
2018-03-03T00:19:53.436Z,2.30
2018-03-03T00:22:41.643Z,2.20
2018-03-03T00:25:09.078Z,2.30
2018-03-03T00:27:37.291Z,2.40
2018-03-03T00:30:04.735Z,2.40
2018-03-03T00:32:32.227Z,2.20
2018-03-03T00:34:59.787Z,2.20
2018-03-03T00:37:27.243Z,2.30
2018-03-03T00:39:54.701Z,2.20
2018-03-03T00:42:22.156Z,2.20
2018-03-03T00:44:49.592Z,2.20
2018-03-03T00:47:17.023Z,2.20
2018-03-03T00:49:45.074Z,2.20
2018-03-03T00:52:12.595Z,2.10
2018-03-03T00:54:40.044Z,2.10
2018-03-03T00:57:07.489Z,2.20
2018-03-03T00:59:34.924Z,2.20
2018-03-03T01:02:02.428Z,2.20
2018-03-03T01:04:29.857Z,2.20
2018-03-03T01:06:57.288Z,2.30
2018-03-03T01:09:25.508Z,2.30
2018-03-03T01:11:52.972Z,2.30
2018-03-03T01:14:20.411Z,2.30
2018-03-03T01:16:47.859Z,2.30
2018-03-03T01:19:15.308Z,2.40
2018-03-03T01:21:42.747Z,2.40
2018-03-03T01:24:10.967Z,2.30
2018-03-03T01:26:38.407Z,2.30
2018-03-03T01:29:05.843Z,2.20
2018-03-03T01:31:33.287Z,2.20
2018-03-03T01:34:01.612Z,2.20
2018-03-03T01:36:29.076Z,2.20
2018-03-03T01:38:56.499Z,2.10
2018-03-03T01:41:23.970Z,2.00
2018-03-03T01:43:51.399Z,2.00
2018-03-03T01:46:18.904Z,2.00
2018-03-03T01:48:46.339Z,2.10
2018-03-03T01:51:25.648Z,2.20
2018-03-03T01:53:53.078Z,2.20
2018-03-03T01:56:20.586Z,2.30
2018-03-03T01:58:48.007Z,2.30
2018-03-03T02:01:16.240Z,2.40
2018-03-03T02:03:43.695Z,2.40
2018-03-03T02:06:11.128Z,2.40
2018-03-03T02:08:38.560Z,2.40
2018-03-03T02:11:06.887Z,2.30
2018-03-03T02:13:34.339Z,2.20
2018-03-03T02:16:01.779Z,2.20
2018-03-03T02:18:29.216Z,2.20
2018-03-03T02:20:56.668Z,2.20
2018-03-03T02:23:24.912Z,2.20
2018-03-03T02:25:52.450Z,2.20
2018-03-03T02:28:19.911Z,2.20
2018-03-03T02:30:47.339Z,2.10
2018-03-03T02:33:14.817Z,2.10
2018-03-03T02:35:42.292Z,2.10
2018-03-03T02:38:09.836Z,2.10
2018-03-03T02:40:37.392Z,2.20
2018-03-03T02:43:04.870Z,2.10
2018-03-03T02:45:32.291Z,2.10
2018-03-03T02:47:59.765Z,2.10
2018-03-03T02:50:27.207Z,2.00
2018-03-03T02:52:54.657Z,2.00
2018-03-03T02:55:22.131Z,2.10
2018-03-03T02:57:49.596Z,2.20
2018-03-03T03:00:17.047Z,2.20
2018-03-03T03:02:44.480Z,2.20
2018-03-03T03:05:11.920Z,2.10
2018-03-03T03:07:39.416Z,2.30
2018-03-03T03:10:06.852Z,2.20
2018-03-03T03:12:34.334Z,2.20
2018-03-03T03:15:01.779Z,2.20
2018-03-03T03:17:29.248Z,2.20
2018-03-03T03:19:56.699Z,2.30
2018-03-03T03:22:24.160Z,2.30
2018-03-03T03:24:51.612Z,2.30
2018-03-03T03:27:19.060Z,2.30
2018-03-03T03:29:46.528Z,2.20
2018-03-03T03:32:13.988Z,2.30
2018-03-03T03:34:41.451Z,2.30
2018-03-03T03:37:08.883Z,2.10
2018-03-03T03:39:36.329Z,2.10
2018-03-03T03:42:04.539Z,2.20
2018-03-03T03:44:32.092Z,2.30
2018-03-03T03:46:59.524Z,2.30
2018-03-03T03:49:26.965Z,2.30
2018-03-03T03:51:54.395Z,2.30
2018-03-03T03:54:22.623Z,2.20
2018-03-03T03:56:50.077Z,2.10
2018-03-03T03:59:17.496Z,2.10
2018-03-03T04:01:45.713Z,2.10
2018-03-03T04:04:13.230Z,2.10
2018-03-03T04:06:40.744Z,2.10
2018-03-03T04:09:08.186Z,2.00
2018-03-03T04:11:35.653Z,2.10
2018-03-03T04:14:03.090Z,2.10
2018-03-03T04:16:30.549Z,2.10
2018-03-03T04:18:57.995Z,2.10
2018-03-03T04:21:25.490Z,2.20
2018-03-03T04:23:52.926Z,2.10
2018-03-03T04:26:20.380Z,2.10
2018-03-03T04:28:47.815Z,2.20
2018-03-03T04:31:15.256Z,2.10
2018-03-03T04:33:43.460Z,2.00
2018-03-03T04:36:10.887Z,2.00
2018-03-03T04:38:39.109Z,2.00
2018-03-03T04:41:06.544Z,2.00
2018-03-03T04:43:33.983Z,1.90
2018-03-03T04:46:02.123Z,2.00
2018-03-03T04:48:29.556Z,2.00
2018-03-03T04:50:56.996Z,1.90
2018-03-03T04:53:24.428Z,2.00
2018-03-03T04:55:51.871Z,2.10
2018-03-03T04:58:23.775Z,2.10
2018-03-03T05:00:52.143Z,2.10
2018-03-03T05:03:24.052Z,2.00
2018-03-03T05:05:58.220Z,2.00
2018-03-03T05:08:26.452Z,2.10
2018-03-03T05:10:55.264Z,2.00
2018-03-03T05:13:28.187Z,2.00
2018-03-03T05:15:55.621Z,2.00
2018-03-03T05:18:43.912Z,2.00
2018-03-03T05:21:16.959Z,2.00
2018-03-03T05:23:50.096Z,2.00
2018-03-03T05:26:20.467Z,2.00
2018-03-03T05:28:53.676Z,2.00
2018-03-03T05:31:26.688Z,2.00
2018-03-03T05:37:18.319Z,2.00
2018-03-03T05:39:51.471Z,2.10
2018-03-03T05:42:24.697Z,2.10
2018-03-03T05:44:57.995Z,2.00
2018-03-03T05:47:31.180Z,1.90
2018-03-03T05:50:04.382Z,2.00
2018-03-03T05:52:37.399Z,2.00
2018-03-03T05:55:11.270Z,2.00
2018-03-03T05:57:44.244Z,2.00
2018-03-03T06:00:17.395Z,2.00
2018-03-03T06:03:06.323Z,1.90
2018-03-03T06:08:54.819Z,1.90
2018-03-03T06:11:23.029Z,1.90
2018-03-03T06:13:50.463Z,1.90
2018-03-03T06:16:17.966Z,1.90
2018-03-03T06:18:45.407Z,1.90
2018-03-03T06:21:12.848Z,2.00
2018-03-03T06:23:40.292Z,2.00
2018-03-03T06:26:07.724Z,2.00
2018-03-03T06:28:35.167Z,1.90
2018-03-03T06:31:03.590Z,2.00
2018-03-03T06:33:31.084Z,2.00
2018-03-03T06:35:58.543Z,2.00
2018-03-03T06:38:25.977Z,2.00
2018-03-03T06:40:53.428Z,2.00
2018-03-03T06:43:20.863Z,1.90
2018-03-03T06:45:48.959Z,2.00
2018-03-03T06:48:16.399Z,1.90
2018-03-03T06:50:43.905Z,2.00
2018-03-03T06:53:11.328Z,1.90
2018-03-03T06:55:38.787Z,1.90
2018-03-03T06:58:06.363Z,2.00
2018-03-03T07:00:33.792Z,1.90
2018-03-03T07:03:01.280Z,2.00
2018-03-03T07:05:28.716Z,1.90
2018-03-03T07:07:56.524Z,2.00
2018-03-03T07:10:23.972Z,2.00
2018-03-03T07:12:51.429Z,1.90
2018-03-03T07:15:22.860Z,2.00
2018-03-03T07:17:50.323Z,1.90
2018-03-03T07:20:17.784Z,1.90
2018-03-03T07:22:45.238Z,1.90
2018-03-03T07:25:12.695Z,1.90
2018-03-03T07:27:40.152Z,2.00
2018-03-03T07:30:07.607Z,2.10
2018-03-03T07:32:35.063Z,2.10
2018-03-03T07:35:02.504Z,2.10
2018-03-03T07:37:29.955Z,2.00
2018-03-03T07:39:57.413Z,2.00
2018-03-03T07:42:24.918Z,2.00
2018-03-03T07:44:52.355Z,2.10
2018-03-03T07:47:19.795Z,2.10
2018-03-03T07:49:47.372Z,2.10
2018-03-03T07:52:14.827Z,2.10
2018-03-03T07:54:42.264Z,2.20
2018-03-03T07:57:12.936Z,2.20
2018-03-03T07:59:40.489Z,2.20
2018-03-03T08:02:08.700Z,2.20
2018-03-03T08:04:36.902Z,2.10
2018-03-03T08:07:04.335Z,2.10
2018-03-03T08:09:31.767Z,2.10
2018-03-03T08:12:01.068Z,2.10
2018-03-03T08:14:28.592Z,2.10
2018-03-03T08:16:56.027Z,2.20
2018-03-03T08:19:23.483Z,2.10
2018-03-03T08:21:50.968Z,2.10
2018-03-03T08:24:18.392Z,2.10
2018-03-03T08:26:45.879Z,2.20
2018-03-03T08:29:13.331Z,2.20
2018-03-03T08:31:40.892Z,2.20
2018-03-03T08:34:08.359Z,2.30
2018-03-03T08:36:35.911Z,2.30
2018-03-03T08:39:03.467Z,2.30
2018-03-03T08:41:30.915Z,2.30
2018-03-03T08:43:58.421Z,2.20
2018-03-03T08:46:25.818Z,2.40
2018-03-03T08:48:53.287Z,2.40
2018-03-03T08:51:20.769Z,2.40
2018-03-03T08:53:48.198Z,2.30
2018-03-03T08:56:15.671Z,2.30
2018-03-03T08:58:43.130Z,2.40
2018-03-03T09:01:10.579Z,2.30
2018-03-03T09:03:38.588Z,2.30
2018-03-03T09:06:07.642Z,2.40
2018-03-03T09:08:35.088Z,2.40
2018-03-03T09:11:02.536Z,2.40
2018-03-03T09:13:30.540Z,2.40
2018-03-03T09:15:57.991Z,2.40
2018-03-03T09:18:25.439Z,2.40
2018-03-03T09:20:52.896Z,2.40
2018-03-03T09:23:20.365Z,2.50
2018-03-03T09:25:47.792Z,2.50
2018-03-03T09:28:15.272Z,2.40
2018-03-03T09:30:42.715Z,2.50
2018-03-03T09:33:10.161Z,2.40
2018-03-03T09:35:37.638Z,2.40
2018-03-03T09:38:05.083Z,2.40
2018-03-03T09:40:32.523Z,2.50
2018-03-03T09:43:00.012Z,2.60
2018-03-03T09:45:27.492Z,2.60
2018-03-03T09:47:54.904Z,2.50
2018-03-03T09:50:22.340Z,2.50
2018-03-03T09:52:49.839Z,2.60
2018-03-03T09:55:17.291Z,2.60
2018-03-03T09:57:44.750Z,2.50
2018-03-03T10:00:12.216Z,2.60
2018-03-03T10:02:39.664Z,2.70
2018-03-03T10:05:07.112Z,2.60
2018-03-03T10:07:34.589Z,2.60
2018-03-03T10:10:02.034Z,2.70
2018-03-03T10:12:30.016Z,2.60
2018-03-03T10:14:57.567Z,2.60
2018-03-03T10:17:25.015Z,2.60
2018-03-03T10:19:52.503Z,2.70
2018-03-03T10:22:19.968Z,2.70
2018-03-03T10:24:47.506Z,2.60
2018-03-03T10:27:14.970Z,2.60
2018-03-03T10:29:42.387Z,2.60
2018-03-03T10:32:11.728Z,2.50
2018-03-03T10:34:39.985Z,2.70
2018-03-03T10:37:07.544Z,2.70
2018-03-03T10:39:34.980Z,2.70
2018-03-03T10:42:02.412Z,2.70
2018-03-03T10:44:29.847Z,2.70
2018-03-03T10:46:58.051Z,2.70
2018-03-03T10:49:25.543Z,2.70
2018-03-03T10:51:52.999Z,2.80
2018-03-03T10:54:20.437Z,2.70
2018-03-03T10:56:47.915Z,2.80
2018-03-03T10:59:15.355Z,2.80
2018-03-03T11:01:42.815Z,2.80
2018-03-03T11:04:10.263Z,2.80
2018-03-03T11:06:37.683Z,2.90
2018-03-03T11:09:05.920Z,2.80
2018-03-03T11:11:33.380Z,2.80
2018-03-03T11:14:00.840Z,2.90
2018-03-03T11:16:28.391Z,3.00
2018-03-03T11:18:55.827Z,3.00
2018-03-03T11:21:23.252Z,2.90
2018-03-03T11:23:51.476Z,3.00
2018-03-03T11:26:18.900Z,3.00
2018-03-03T11:28:46.336Z,3.00
2018-03-03T11:31:14.539Z,3.10
2018-03-03T11:33:41.980Z,3.10
2018-03-03T11:36:09.423Z,3.00
2018-03-03T11:38:37.623Z,3.00
2018-03-03T11:41:05.055Z,3.00
2018-03-03T11:43:33.269Z,3.10
2018-03-03T11:46:00.722Z,3.00
2018-03-03T11:48:28.162Z,3.10
2018-03-03T11:50:55.615Z,3.10
2018-03-03T11:53:23.810Z,3.00
2018-03-03T11:55:51.246Z,3.00
2018-03-03T11:58:18.758Z,3.10
2018-03-03T12:00:46.144Z,3.00
2018-03-03T12:03:14.364Z,3.10
2018-03-03T12:05:41.798Z,3.10
2018-03-03T12:08:10.044Z,3.20
2018-03-03T12:10:38.249Z,3.20
2018-03-03T12:13:05.731Z,3.20
2018-03-03T12:15:33.172Z,3.20
2018-03-03T12:18:00.611Z,3.10
2018-03-03T12:20:28.104Z,3.20
2018-03-03T12:22:55.540Z,3.20
2018-03-03T12:25:23.120Z,3.30
2018-03-03T12:27:50.559Z,3.20
2018-03-03T12:30:18.032Z,3.30
2018-03-03T12:32:45.492Z,3.30
2018-03-03T12:35:12.927Z,3.30
2018-03-03T12:37:40.407Z,3.30
2018-03-03T12:40:07.971Z,3.30
2018-03-03T12:42:35.427Z,3.30
2018-03-03T12:45:02.891Z,3.30
2018-03-03T12:47:30.379Z,3.30
2018-03-03T12:49:57.807Z,3.40
2018-03-03T12:52:25.248Z,3.30
2018-03-03T12:54:52.712Z,3.30
2018-03-03T12:57:20.148Z,3.30
2018-03-03T12:59:47.630Z,3.40
2018-03-03T13:02:15.103Z,3.50
2018-03-03T13:04:42.637Z,3.50
2018-03-03T13:07:10.073Z,3.50
2018-03-03T13:09:37.520Z,3.50
2018-03-03T13:12:04.948Z,3.50
2018-03-03T13:14:33.180Z,3.60
2018-03-03T13:17:00.631Z,3.60
2018-03-03T13:19:28.099Z,3.60
2018-03-03T13:21:55.560Z,3.60
2018-03-03T13:24:23.000Z,3.70
2018-03-03T13:26:50.444Z,3.70
2018-03-03T13:29:17.923Z,3.70
2018-03-03T13:31:45.370Z,3.70
2018-03-03T13:34:12.805Z,3.80
2018-03-03T13:36:40.395Z,3.80
2018-03-03T13:39:07.851Z,3.70
2018-03-03T13:41:35.307Z,3.80
2018-03-03T13:44:02.765Z,3.70
2018-03-03T13:46:30.315Z,3.70
2018-03-03T13:48:57.779Z,3.80
2018-03-03T13:51:25.955Z,3.80
2018-03-03T13:53:53.411Z,3.80
2018-03-03T13:56:20.873Z,3.90
2018-03-03T13:58:48.311Z,3.90
2018-03-03T14:01:15.771Z,3.90
2018-03-03T14:03:43.207Z,3.80
2018-03-03T14:06:10.696Z,3.90
2018-03-03T14:08:38.155Z,3.90
2018-03-03T14:11:05.615Z,3.90
2018-03-03T14:13:33.062Z,3.90
2018-03-03T14:16:00.511Z,3.80
2018-03-03T14:18:27.956Z,3.80
2018-03-03T14:20:55.440Z,3.80
2018-03-03T14:23:22.895Z,3.80
2018-03-03T14:25:50.356Z,3.90
2018-03-03T14:28:17.807Z,3.90
2018-03-03T14:30:45.257Z,3.90
2018-03-03T14:33:12.698Z,3.90
2018-03-03T14:35:40.175Z,3.90
2018-03-03T14:38:08.063Z,3.90
2018-03-03T14:40:35.504Z,3.90
2018-03-03T14:43:02.959Z,3.90
2018-03-03T14:45:30.412Z,3.90
2018-03-03T14:47:57.864Z,3.90
2018-03-03T14:50:25.328Z,3.90
2018-03-03T14:52:52.790Z,3.80
2018-03-03T14:55:20.247Z,3.80
2018-03-03T14:57:47.701Z,3.90
2018-03-03T15:00:15.142Z,3.90
2018-03-03T15:02:42.567Z,3.90
2018-03-03T15:05:10.068Z,3.90
2018-03-03T15:07:37.524Z,3.90
2018-03-03T15:10:04.964Z,3.80
2018-03-03T15:12:32.402Z,3.90
2018-03-03T15:14:59.844Z,3.90
2018-03-03T15:17:28.050Z,3.90
2018-03-03T15:19:55.528Z,3.90
2018-03-03T15:22:22.983Z,3.90
2018-03-03T15:24:50.440Z,3.80
2018-03-03T15:27:17.900Z,3.80
2018-03-03T15:29:45.356Z,3.80
2018-03-03T15:32:12.811Z,3.80
2018-03-03T15:34:40.260Z,3.80
2018-03-03T15:37:07.705Z,3.90
2018-03-03T15:39:35.762Z,3.90
2018-03-03T15:42:03.948Z,3.90
2018-03-03T15:44:31.394Z,3.90
2018-03-03T15:46:58.831Z,3.90
2018-03-03T15:49:27.055Z,3.90
2018-03-03T15:51:54.512Z,3.90
2018-03-03T15:54:21.968Z,3.90
2018-03-03T15:56:49.405Z,3.90
2018-03-03T15:59:16.892Z,3.90
2018-03-03T16:01:45.080Z,3.90
2018-03-03T16:04:12.516Z,3.90
2018-03-03T16:06:39.963Z,3.90
2018-03-03T16:09:07.437Z,3.90
2018-03-03T16:11:34.887Z,3.90
2018-03-03T16:14:02.333Z,3.90
2018-03-03T16:16:29.812Z,3.90
2018-03-03T16:18:57.249Z,3.90
2018-03-03T16:21:24.700Z,3.90
2018-03-03T16:23:52.178Z,3.90
2018-03-03T16:26:19.632Z,3.90
2018-03-03T16:28:47.079Z,3.90
2018-03-03T16:31:14.519Z,3.90
2018-03-03T16:33:41.963Z,3.90
2018-03-03T16:36:09.459Z,3.90
2018-03-03T16:38:36.916Z,3.80
2018-03-03T16:41:04.990Z,3.90
2018-03-03T16:43:32.551Z,4.00
2018-03-03T16:45:59.992Z,3.80
2018-03-03T16:48:27.467Z,3.90
2018-03-03T16:50:55.034Z,3.90
2018-03-03T16:53:22.576Z,3.90
2018-03-03T16:55:50.024Z,3.90
2018-03-03T16:58:17.467Z,3.80
2018-03-03T17:00:44.919Z,3.80
2018-03-03T17:03:12.351Z,3.80
2018-03-03T17:05:41.091Z,3.90
2018-03-03T17:08:08.529Z,3.90
2018-03-03T17:10:35.964Z,3.90
2018-03-03T17:13:03.463Z,3.90
2018-03-03T17:15:30.923Z,3.80
2018-03-03T17:17:58.355Z,3.80
2018-03-03T17:20:25.836Z,3.80
2018-03-03T17:22:53.426Z,3.80
2018-03-03T17:25:20.948Z,3.80
2018-03-03T17:27:48.383Z,3.90
2018-03-03T17:30:15.815Z,3.90
2018-03-03T17:32:44.710Z,3.90
2018-03-03T17:35:12.917Z,3.80
2018-03-03T17:37:40.352Z,3.80
2018-03-03T17:40:07.841Z,3.80
2018-03-03T17:42:35.304Z,3.70
2018-03-03T17:45:02.768Z,3.80
2018-03-03T17:47:30.211Z,3.80
2018-03-03T17:49:57.645Z,3.80
2018-03-03T17:52:25.164Z,3.70
2018-03-03T17:54:52.600Z,3.70
2018-03-03T17:57:20.048Z,3.70
2018-03-03T17:59:47.501Z,3.80
2018-03-03T18:02:14.943Z,3.70
2018-03-03T18:04:42.671Z,3.70
2018-03-03T18:07:10.880Z,3.60
2018-03-03T18:09:38.325Z,3.60
2018-03-03T18:12:05.771Z,3.70
2018-03-03T18:14:33.263Z,3.70
2018-03-03T18:17:00.695Z,3.60
2018-03-03T18:19:28.955Z,3.60
2018-03-03T18:21:56.388Z,3.60
2018-03-03T18:24:34.411Z,3.50
2018-03-03T18:27:02.608Z,3.40
2018-03-03T18:29:30.111Z,3.40
2018-03-03T18:31:57.657Z,3.40
2018-03-03T18:34:25.124Z,3.40
2018-03-03T18:36:52.577Z,3.40
2018-03-03T18:39:20.145Z,3.40
2018-03-03T18:41:47.583Z,3.50
2018-03-03T18:44:15.028Z,3.40
2018-03-03T18:46:42.497Z,3.30
2018-03-03T18:49:09.950Z,3.40
2018-03-03T18:51:37.379Z,3.30
2018-03-03T18:54:04.864Z,3.30
2018-03-03T18:56:32.307Z,3.50
2018-03-03T18:58:59.752Z,3.50
2018-03-03T19:01:27.191Z,3.50
2018-03-03T19:03:54.631Z,3.50
2018-03-03T19:06:22.964Z,3.50
2018-03-03T19:08:50.401Z,3.50
2018-03-03T19:11:17.890Z,3.50
2018-03-03T19:13:45.440Z,3.50
2018-03-03T19:16:12.890Z,3.50
2018-03-03T19:18:40.331Z,3.50
2018-03-03T19:21:07.772Z,3.60
2018-03-03T19:23:35.222Z,3.50
2018-03-03T19:26:03.440Z,3.60
2018-03-03T19:28:30.895Z,3.60
2018-03-03T19:30:58.352Z,3.60
2018-03-03T19:33:25.818Z,3.50
2018-03-03T19:35:53.256Z,3.60
2018-03-03T19:38:20.715Z,3.60
2018-03-03T19:40:48.161Z,3.60
2018-03-03T19:43:15.620Z,3.60
2018-03-03T19:45:43.074Z,3.50
2018-03-03T19:48:10.520Z,3.50
2018-03-03T19:50:38.008Z,3.60
2018-03-03T19:53:05.446Z,3.50
2018-03-03T19:55:32.928Z,3.50
2018-03-03T19:58:00.380Z,3.60
2018-03-03T20:00:27.839Z,3.60
2018-03-03T20:02:55.292Z,3.60
2018-03-03T20:05:22.736Z,3.60
2018-03-03T20:07:50.213Z,3.60
2018-03-03T20:10:17.648Z,3.50
2018-03-03T20:12:45.124Z,3.60
2018-03-03T20:15:12.564Z,3.50
2018-03-03T20:17:40.307Z,3.50
2018-03-03T20:20:07.808Z,3.50
2018-03-03T20:22:35.356Z,3.60
2018-03-03T20:25:02.815Z,3.60
2018-03-03T20:27:30.252Z,3.60
2018-03-03T20:29:57.742Z,3.60
2018-03-03T20:32:25.196Z,3.70
2018-03-03T20:34:52.644Z,3.70
2018-03-03T20:37:20.736Z,3.70
2018-03-03T20:39:48.991Z,3.60
2018-03-03T20:42:16.424Z,3.60
2018-03-03T20:44:43.871Z,3.60
2018-03-03T20:47:11.379Z,3.60
2018-03-03T20:49:38.818Z,3.60
2018-03-03T20:52:06.268Z,3.70
2018-03-03T20:54:33.708Z,3.70
2018-03-03T20:57:01.192Z,3.70
2018-03-03T20:59:28.629Z,3.70
2018-03-03T21:01:56.077Z,3.70
2018-03-03T21:04:23.512Z,3.60
2018-03-03T21:06:51.020Z,3.60
2018-03-03T21:09:18.460Z,3.60
2018-03-03T21:14:46.263Z,3.50
2018-03-03T21:17:13.703Z,3.60
2018-03-03T21:19:41.148Z,3.70
2018-03-03T21:22:08.595Z,3.60
2018-03-03T21:24:36.028Z,3.60
2018-03-03T21:27:04.235Z,3.60
2018-03-03T21:29:31.680Z,3.60
2018-03-03T21:31:59.116Z,3.60
2018-03-03T21:34:27.328Z,3.70
2018-03-03T21:36:54.779Z,3.60
2018-03-03T21:39:22.264Z,3.60
2018-03-03T21:41:49.700Z,3.60
2018-03-03T21:44:17.123Z,3.60
2018-03-03T21:46:45.334Z,3.60
2018-03-03T21:49:12.759Z,3.60
2018-03-03T21:51:40.197Z,3.60
2018-03-03T21:54:08.422Z,3.60
2018-03-03T21:56:35.848Z,3.60
2018-03-03T21:59:03.285Z,3.60
2018-03-03T22:01:31.496Z,3.60
2018-03-03T22:03:58.928Z,3.60
2018-03-03T22:06:27.127Z,3.50
2018-03-03T22:08:54.570Z,3.50
2018-03-03T22:11:22.000Z,3.50
2018-03-03T22:13:50.232Z,3.50
2018-03-03T22:16:17.663Z,3.50
2018-03-03T22:18:45.097Z,3.50
2018-03-03T22:21:13.305Z,3.60
2018-03-03T22:23:40.736Z,3.60
2018-03-03T22:26:08.940Z,3.60
2018-03-03T22:28:36.403Z,3.60
2018-03-03T22:31:03.831Z,3.60
2018-03-03T22:33:31.272Z,3.60
2018-03-03T22:35:59.476Z,3.60
2018-03-03T22:38:26.911Z,3.60
2018-03-03T22:40:54.343Z,3.50
2018-03-03T22:43:21.781Z,3.70
2018-03-03T22:45:49.235Z,3.60
2018-03-03T22:48:16.663Z,3.60
2018-03-03T22:50:44.119Z,3.60
2018-03-03T22:53:11.573Z,3.70
2018-03-03T22:55:39.001Z,3.60
2018-03-03T22:58:07.903Z,3.60
2018-03-03T23:00:36.097Z,3.60
2018-03-03T23:03:03.538Z,3.60
2018-03-03T23:05:31.000Z,3.60
2018-03-03T23:07:58.436Z,3.60
2018-03-03T23:10:26.663Z,3.70
2018-03-03T23:12:54.107Z,3.70
2018-03-03T23:15:21.540Z,3.70
2018-03-03T23:17:48.976Z,3.60
2018-03-03T23:20:17.188Z,3.60
2018-03-03T23:22:44.631Z,3.60
2018-03-03T23:25:12.071Z,3.50
2018-03-03T23:27:40.277Z,3.60
2018-03-03T23:30:07.720Z,3.60
2018-03-03T23:32:35.155Z,3.70
2018-03-03T23:35:03.347Z,3.60
2018-03-03T23:37:30.809Z,3.60
2018-03-03T23:39:58.243Z,3.60
2018-03-03T23:42:26.446Z,3.60
2018-03-03T23:44:53.889Z,3.50
2018-03-03T23:47:21.371Z,3.60
2018-03-03T23:49:48.815Z,3.60
2018-03-03T23:52:16.284Z,3.60
2018-03-03T23:54:43.720Z,3.60
2018-03-03T23:57:11.154Z,3.60
2018-03-03T23:59:39.368Z,3.60
